McVille, North Dakota
Current Conditions -  °F | °C
As of 11:58 AM on Friday 19 Dec 2014 (Local Time) from KRDR Reporting Station
Haze Haze  
Wind Chill: 17°   Ceiling: 400
Heat Index: 26°   Visibility: 3mi
Dew Point: 26°   Wind: 9mph
Humidity: 100%   Direction: 170°S
Pressure: 30.04"   Gusts: NA
Location:  47.76°N, 98.18°W
Report Text: KRDR 191758Z 17008KT 3SM BR OVC004 M03/M03 A3004 RMK AO2A SLP193 T10321032 11032 21056 58008
Loading
Personal Weather Stations






























Interactive Weather Map New forecast layout! Learn more

10-Day Weather Forecast

Advertisements
Track Severe Weather on mobile